createdAt,value
2023-09-17T00:02:33.381Z,15.82
2023-09-17T00:05:37.012Z,15.78
2023-09-17T00:08:39.851Z,15.74
2023-09-17T00:11:43.072Z,15.72
2023-09-17T00:14:46.604Z,15.73
2023-09-17T00:17:50.784Z,15.71
2023-09-17T00:20:53.634Z,15.70
2023-09-17T00:23:56.566Z,15.87
2023-09-17T00:26:59.726Z,15.87
2023-09-17T00:30:02.693Z,15.86
2023-09-17T00:33:05.765Z,15.86
2023-09-17T00:36:08.919Z,15.77
2023-09-17T00:39:11.585Z,15.71
2023-09-17T00:42:14.835Z,15.68
2023-09-17T00:45:17.825Z,15.62
2023-09-17T00:48:21.235Z,15.59
2023-09-17T00:51:24.313Z,15.58
2023-09-17T00:54:30.217Z,15.51
2023-09-17T00:57:33.091Z,15.59
2023-09-17T01:00:39.674Z,15.60
2023-09-17T01:03:42.640Z,15.49
2023-09-17T01:06:48.067Z,15.49
2023-09-17T01:09:53.443Z,15.60
2023-09-17T01:12:58.098Z,15.60
2023-09-17T01:16:00.798Z,15.63
2023-09-17T01:19:05.229Z,15.67
2023-09-17T01:22:14.121Z,15.61
2023-09-17T01:25:20.182Z,15.60
2023-09-17T01:28:23.562Z,15.56
2023-09-17T01:31:28.446Z,15.48
2023-09-17T01:34:33.774Z,15.42
2023-09-17T01:37:40.778Z,15.34
2023-09-17T01:40:44.962Z,15.40
2023-09-17T01:43:49.107Z,15.45
2023-09-17T01:46:53.052Z,15.48
2023-09-17T01:49:59.715Z,15.42
2023-09-17T01:53:02.678Z,15.40
2023-09-17T01:56:05.924Z,15.37
2023-09-17T01:59:08.744Z,15.37
2023-09-17T02:02:12.105Z,15.34
2023-09-17T02:05:17.691Z,15.25
2023-09-17T02:08:20.549Z,15.18
2023-09-17T02:11:24.670Z,15.10
2023-09-17T02:14:27.534Z,15.04
2023-09-17T02:17:30.950Z,14.96
2023-09-17T02:20:38.565Z,14.95
2023-09-17T02:23:41.536Z,14.91
2023-09-17T02:26:45.610Z,14.89
2023-09-17T02:29:48.378Z,14.85
2023-09-17T02:32:51.560Z,14.86
2023-09-17T02:35:54.916Z,14.81
2023-09-17T02:38:58.218Z,14.77
2023-09-17T02:42:01.125Z,14.87
2023-09-17T02:45:06.202Z,14.99
2023-09-17T02:48:09.141Z,15.04
2023-09-17T02:51:12.120Z,14.91
2023-09-17T02:54:15.716Z,14.79
2023-09-17T02:57:18.948Z,14.77
2023-09-17T03:00:22.893Z,14.83
2023-09-17T03:03:26.158Z,14.86
2023-09-17T03:06:29.110Z,14.97
2023-09-17T03:09:32.118Z,14.94
2023-09-17T03:12:34.843Z,14.90
2023-09-17T03:15:38.598Z,14.91
2023-09-17T03:18:46.097Z,14.97
2023-09-17T03:21:49.232Z,15.09
2023-09-17T03:25:03.758Z,15.04
2023-09-17T03:28:08.077Z,14.93
2023-09-17T03:31:11.075Z,14.87
2023-09-17T03:34:14.516Z,14.75
2023-09-17T03:37:17.179Z,14.73
2023-09-17T03:40:20.891Z,14.82
2023-09-17T03:43:25.356Z,14.76
2023-09-17T03:46:28.450Z,14.72
2023-09-17T03:49:32.689Z,14.82
2023-09-17T03:52:38.927Z,14.70
2023-09-17T03:55:42.063Z,14.68
2023-09-17T03:58:49.659Z,14.63
2023-09-17T04:01:53.616Z,14.63
2023-09-17T04:04:56.686Z,14.55
2023-09-17T04:07:59.300Z,14.46
2023-09-17T04:11:02.397Z,14.46
2023-09-17T04:14:06.537Z,14.52
2023-09-17T04:17:11.222Z,14.50
2023-09-17T04:20:19.752Z,14.52
2023-09-17T04:23:26.160Z,14.50
2023-09-17T04:26:30.743Z,14.45
2023-09-17T04:29:33.870Z,14.41
2023-09-17T04:32:39.258Z,14.40
2023-09-17T04:35:42.550Z,14.44
2023-09-17T04:38:45.668Z,14.47
2023-09-17T04:41:51.408Z,14.52
2023-09-17T04:44:54.803Z,14.57
2023-09-17T04:47:57.857Z,14.51
2023-09-17T04:51:01.662Z,14.48
2023-09-17T04:54:10.002Z,14.53
2023-09-17T04:57:12.742Z,14.64
2023-09-17T05:00:16.032Z,14.71
2023-09-17T05:03:20.480Z,14.80
2023-09-17T05:06:24.500Z,14.92
2023-09-17T05:09:27.786Z,14.90
2023-09-17T05:12:30.929Z,14.97
2023-09-17T05:15:33.988Z,15.02
2023-09-17T05:18:36.897Z,15.08
2023-09-17T05:21:39.760Z,15.16
2023-09-17T05:24:42.957Z,15.21
2023-09-17T05:27:47.297Z,15.29
2023-09-17T05:30:56.869Z,15.39
2023-09-17T05:33:59.788Z,15.43
2023-09-17T05:37:03.105Z,15.67
2023-09-17T05:40:06.701Z,15.73
2023-09-17T05:43:10.172Z,15.78
2023-09-17T05:46:14.173Z,15.88
2023-09-17T05:49:17.920Z,15.96
2023-09-17T05:52:22.572Z,15.98
2023-09-17T05:55:25.864Z,16.08
2023-09-17T05:58:29.036Z,16.18
2023-09-17T06:01:32.847Z,16.33
2023-09-17T06:04:36.216Z,16.44
2023-09-17T06:07:39.209Z,16.44
2023-09-17T06:10:42.640Z,16.49
2023-09-17T06:13:45.644Z,16.57
2023-09-17T06:16:57.348Z,16.73
2023-09-17T06:20:02.033Z,16.91
2023-09-17T06:23:05.557Z,17.07
2023-09-17T06:26:10.329Z,17.30
2023-09-17T06:29:13.949Z,17.60
2023-09-17T06:32:17.101Z,18.27
2023-09-17T06:35:20.323Z,18.38
2023-09-17T06:38:23.053Z,19.15
2023-09-17T06:41:26.705Z,19.47
2023-09-17T06:44:31.008Z,19.88
2023-09-17T06:47:34.645Z,20.79
2023-09-17T06:50:37.322Z,21.08
2023-09-17T06:53:40.927Z,21.94
2023-09-17T06:56:43.687Z,22.10
2023-09-17T06:59:48.163Z,22.83
2023-09-17T07:02:51.011Z,22.93
2023-09-17T07:05:54.231Z,23.52
2023-09-17T07:08:58.456Z,23.15
2023-09-17T07:12:01.582Z,23.34
2023-09-17T07:15:07.080Z,24.17
2023-09-17T07:18:11.855Z,24.54
2023-09-17T07:21:14.906Z,25.31
2023-09-17T07:24:18.087Z,26.05
2023-09-17T07:27:20.943Z,24.85
2023-09-17T07:30:24.008Z,24.64
2023-09-17T07:33:26.802Z,26.62
2023-09-17T07:36:30.932Z,27.18
2023-09-17T07:39:33.765Z,28.55
2023-09-17T07:42:37.032Z,27.43
2023-09-17T07:45:39.573Z,28.39
2023-09-17T07:48:42.662Z,29.55
2023-09-17T07:51:45.579Z,29.66
2023-09-17T07:54:48.414Z,30.32
2023-09-17T07:57:52.433Z,28.25
2023-09-17T08:00:55.669Z,28.46
2023-09-17T08:03:59.084Z,29.52
2023-09-17T08:07:02.284Z,28.56
2023-09-17T08:10:05.973Z,29.63
2023-09-17T08:13:10.141Z,29.33
2023-09-17T08:16:13.502Z,31.26
2023-09-17T08:19:16.606Z,31.06
2023-09-17T08:22:19.965Z,30.39
2023-09-17T08:25:22.687Z,31.04
2023-09-17T08:28:25.569Z,30.44
2023-09-17T08:31:29.484Z,28.03
2023-09-17T08:34:33.886Z,30.79
2023-09-17T08:37:37.785Z,31.60
2023-09-17T08:40:41.879Z,32.20
2023-09-17T08:43:47.023Z,31.66
2023-09-17T08:46:53.096Z,32.19
2023-09-17T08:49:55.949Z,31.04
2023-09-17T08:53:03.432Z,31.77
2023-09-17T08:56:07.963Z,28.36
2023-09-17T08:59:14.316Z,27.46
2023-09-17T09:02:25.481Z,27.34
2023-09-17T09:05:29.633Z,27.00
2023-09-17T09:08:32.758Z,26.71
2023-09-17T09:11:36.571Z,25.86
2023-09-17T09:14:41.485Z,25.67
2023-09-17T09:17:44.881Z,25.47
2023-09-17T09:20:48.501Z,25.29
2023-09-17T09:23:51.911Z,25.00
2023-09-17T09:26:56.505Z,24.76
2023-09-17T09:30:06.123Z,24.66
2023-09-17T09:33:09.287Z,24.80
2023-09-17T09:36:13.323Z,24.50
2023-09-17T09:39:17.299Z,24.58
2023-09-17T09:42:22.675Z,24.67
2023-09-17T09:45:25.574Z,24.81
2023-09-17T09:48:29.511Z,24.89
2023-09-17T09:51:33.070Z,25.10
2023-09-17T09:54:38.925Z,25.26
2023-09-17T09:57:43.409Z,25.23
2023-09-17T10:00:46.774Z,25.30
2023-09-17T10:03:52.312Z,25.24
2023-09-17T10:06:57.203Z,25.20
2023-09-17T10:10:01.530Z,25.39
2023-09-17T10:13:07.669Z,25.56
2023-09-17T10:16:12.072Z,25.61
2023-09-17T10:19:20.068Z,25.63
2023-09-17T10:22:24.635Z,25.54
2023-09-17T10:25:30.040Z,25.53
2023-09-17T10:28:35.803Z,26.06
2023-09-17T10:31:40.410Z,26.33
2023-09-17T10:34:43.823Z,26.43
2023-09-17T10:37:48.074Z,26.44
2023-09-17T10:40:51.982Z,26.20
2023-09-17T10:43:57.259Z,26.07
2023-09-17T10:47:02.563Z,26.11
2023-09-17T10:50:05.840Z,27.60
2023-09-17T10:53:08.973Z,29.73
2023-09-17T10:56:15.037Z,33.17
2023-09-17T10:59:19.294Z,31.54
2023-09-17T11:02:27.361Z,29.43
2023-09-17T11:05:33.947Z,27.82
2023-09-17T11:08:36.909Z,27.60
2023-09-17T11:11:41.201Z,27.92
2023-09-17T11:14:47.312Z,31.26
2023-09-17T11:17:51.894Z,30.53
2023-09-17T11:21:08.212Z,32.43
2023-09-17T11:24:12.802Z,31.64
2023-09-17T11:27:19.799Z,32.45
2023-09-17T11:30:25.729Z,31.83
2023-09-17T11:33:28.922Z,30.65
2023-09-17T11:36:33.343Z,30.29
2023-09-17T11:39:37.918Z,31.27
2023-09-17T11:42:42.208Z,32.06
2023-09-17T11:45:46.292Z,31.40
2023-09-17T11:48:49.240Z,29.89
2023-09-17T11:51:53.141Z,31.00
2023-09-17T11:55:13.371Z,34.74
2023-09-17T11:58:22.594Z,33.30
2023-09-17T12:01:27.913Z,31.60
2023-09-17T12:04:32.856Z,29.89
2023-09-17T12:07:45.668Z,29.30
2023-09-17T12:11:08.309Z,30.45
2023-09-17T12:14:11.565Z,34.39
2023-09-17T12:17:17.714Z,37.38
2023-09-17T12:21:02.534Z,39.52
2023-09-17T12:24:09.784Z,39.95
2023-09-17T12:27:36.863Z,39.62
2023-09-17T12:30:41.037Z,37.98
2023-09-17T12:33:44.634Z,38.84
2023-09-17T12:36:47.624Z,40.12
2023-09-17T12:39:51.179Z,37.20
2023-09-17T12:42:54.362Z,39.19
2023-09-17T12:45:57.465Z,38.60
2023-09-17T12:49:01.644Z,38.74
2023-09-17T12:52:07.545Z,40.12
2023-09-17T12:55:10.927Z,39.85
2023-09-17T12:58:14.311Z,36.37
2023-09-17T13:01:17.592Z,35.31
2023-09-17T13:04:20.773Z,34.64
2023-09-17T13:07:26.756Z,36.95
2023-09-17T13:10:29.862Z,36.81
2023-09-17T13:13:33.001Z,34.74
2023-09-17T13:16:35.705Z,32.84
2023-09-17T13:19:38.895Z,34.14
2023-09-17T13:22:42.057Z,34.83
2023-09-17T13:25:45.521Z,37.55
2023-09-17T13:28:53.670Z,37.77
2023-09-17T13:31:56.978Z,37.51
2023-09-17T13:35:00.068Z,38.69
2023-09-17T13:38:03.715Z,40.62
2023-09-17T13:41:06.750Z,38.64
2023-09-17T13:44:10.032Z,38.97
2023-09-17T13:47:13.396Z,38.98
2023-09-17T13:50:16.981Z,41.11
2023-09-17T13:53:20.366Z,39.92
2023-09-17T13:56:23.754Z,39.66
2023-09-17T13:59:26.368Z,40.91
2023-09-17T14:02:29.561Z,40.09
2023-09-17T14:05:32.961Z,39.07
2023-09-17T14:08:36.534Z,35.34
2023-09-17T14:11:40.119Z,34.84
2023-09-17T14:14:43.172Z,34.18
2023-09-17T14:17:46.574Z,33.71
2023-09-17T14:20:49.177Z,32.63
2023-09-17T14:23:52.037Z,31.21
2023-09-17T14:26:55.021Z,30.04
2023-09-17T14:29:58.436Z,29.24
2023-09-17T14:33:02.062Z,28.85
2023-09-17T14:36:05.452Z,28.35
2023-09-17T14:39:10.738Z,28.30
2023-09-17T14:42:15.532Z,28.11
2023-09-17T14:45:18.527Z,27.38
2023-09-17T14:48:21.594Z,27.55
2023-09-17T14:51:24.701Z,27.69
2023-09-17T14:54:27.957Z,27.45
2023-09-17T14:57:34.852Z,27.29
2023-09-17T15:00:38.250Z,27.12
2023-09-17T15:03:41.418Z,27.27
2023-09-17T15:06:44.851Z,27.05
2023-09-17T15:09:49.101Z,26.98
2023-09-17T15:12:52.290Z,26.75
2023-09-17T15:15:55.224Z,26.68
2023-09-17T15:18:59.077Z,26.62
2023-09-17T15:22:02.184Z,26.59
2023-09-17T15:25:05.770Z,26.46
2023-09-17T15:28:08.872Z,26.36
2023-09-17T15:31:12.140Z,26.39
2023-09-17T15:34:15.833Z,26.21
2023-09-17T15:37:19.178Z,26.13
2023-09-17T15:40:22.159Z,26.00
2023-09-17T15:43:25.797Z,25.88
2023-09-17T15:46:29.164Z,25.73
2023-09-17T15:49:32.873Z,25.66
2023-09-17T15:52:36.685Z,25.51
2023-09-17T15:55:41.128Z,25.44
2023-09-17T15:58:44.480Z,25.29
2023-09-17T16:01:47.959Z,25.16
2023-09-17T16:04:51.716Z,25.08
2023-09-17T16:07:55.133Z,24.90
2023-09-17T16:10:59.005Z,24.79
2023-09-17T16:14:03.691Z,24.68
2023-09-17T16:17:07.218Z,24.50
2023-09-17T16:20:10.809Z,24.40
2023-09-17T16:23:17.159Z,24.29
2023-09-17T16:26:21.407Z,24.12
2023-09-17T16:29:25.064Z,24.03
2023-09-17T16:32:29.795Z,23.90
2023-09-17T16:35:33.400Z,23.78
2023-09-17T16:38:36.431Z,23.68
2023-09-17T16:41:39.807Z,23.53
2023-09-17T16:44:45.950Z,23.36
2023-09-17T16:47:49.499Z,23.23
2023-09-17T16:50:52.969Z,23.11
2023-09-17T16:53:57.487Z,22.99
2023-09-17T16:57:00.627Z,22.87
2023-09-17T17:00:05.089Z,22.80
2023-09-17T17:03:08.357Z,22.73
2023-09-17T17:06:12.378Z,22.65
2023-09-17T17:09:15.466Z,22.56
2023-09-17T17:12:19.152Z,22.46
2023-09-17T17:15:22.651Z,22.37
2023-09-17T17:18:26.889Z,22.30
2023-09-17T17:21:30.125Z,22.21
2023-09-17T17:24:34.762Z,22.09
2023-09-17T17:27:38.077Z,22.01
2023-09-17T17:30:42.266Z,21.93
2023-09-17T17:33:45.706Z,21.83
2023-09-17T17:36:49.303Z,21.74
2023-09-17T17:39:53.457Z,21.67
2023-09-17T17:42:57.203Z,21.60
2023-09-17T17:46:01.412Z,21.54
2023-09-17T17:49:05.167Z,21.44
2023-09-17T17:52:08.994Z,21.34
2023-09-17T17:55:12.666Z,21.29
2023-09-17T17:58:16.965Z,21.21
2023-09-17T18:01:20.730Z,21.16
2023-09-17T18:04:24.194Z,21.11
2023-09-17T18:07:28.577Z,21.07
2023-09-17T18:10:31.992Z,20.98
2023-09-17T18:13:35.077Z,20.93
2023-09-17T18:16:38.790Z,20.90
2023-09-17T18:19:42.053Z,20.84
2023-09-17T18:22:47.178Z,20.81
2023-09-17T18:25:50.956Z,20.73
2023-09-17T18:28:58.179Z,20.65
2023-09-17T18:32:02.346Z,20.64
2023-09-17T18:35:06.412Z,20.63
2023-09-17T18:38:09.500Z,20.63
2023-09-17T18:41:13.341Z,20.60
2023-09-17T18:44:20.867Z,20.56
2023-09-17T18:47:25.560Z,20.57
2023-09-17T18:50:29.307Z,20.55
2023-09-17T18:53:32.981Z,20.48
2023-09-17T18:56:36.144Z,20.44
2023-09-17T18:59:40.359Z,20.42
2023-09-17T19:02:44.985Z,20.35
2023-09-17T19:05:48.806Z,20.36
2023-09-17T19:08:52.406Z,20.31
2023-09-17T19:11:56.170Z,20.30
2023-09-17T19:15:00.495Z,20.31
2023-09-17T19:18:04.439Z,20.25
2023-09-17T19:21:13.180Z,20.25
2023-09-17T19:24:16.875Z,20.23
2023-09-17T19:27:20.005Z,20.13
2023-09-17T19:30:23.470Z,20.05
2023-09-17T19:33:26.852Z,20.02
2023-09-17T19:36:30.676Z,19.96
2023-09-17T19:39:34.055Z,19.91
2023-09-17T19:42:37.477Z,19.88
2023-09-17T19:45:44.908Z,19.87
2023-09-17T19:48:49.241Z,19.84
2023-09-17T19:51:52.928Z,19.87
2023-09-17T19:54:56.552Z,19.83
2023-09-17T19:57:59.789Z,19.81
2023-09-17T20:01:04.012Z,19.83
2023-09-17T20:04:07.603Z,19.77
2023-09-17T20:07:10.913Z,19.72
2023-09-17T20:10:17.734Z,19.77
2023-09-17T20:13:21.003Z,19.67
2023-09-17T20:16:25.273Z,19.63
2023-09-17T20:19:28.039Z,19.59
2023-09-17T20:22:31.424Z,19.56
2023-09-17T20:25:34.747Z,19.54
2023-09-17T20:28:38.842Z,19.52
2023-09-17T20:31:41.555Z,19.47
2023-09-17T20:34:44.637Z,19.44
2023-09-17T20:37:47.262Z,19.39
2023-09-17T20:40:50.640Z,19.38
2023-09-17T20:43:53.599Z,19.34
2023-09-17T20:46:56.869Z,19.29
2023-09-17T20:49:59.748Z,19.26
2023-09-17T20:53:03.373Z,19.22
2023-09-17T20:56:06.314Z,19.17
2023-09-17T20:59:09.239Z,19.13
2023-09-17T21:02:11.849Z,19.15
2023-09-17T21:05:16.387Z,19.14
2023-09-17T21:08:22.058Z,19.09
2023-09-17T21:11:25.177Z,19.07
2023-09-17T21:14:28.172Z,19.04
2023-09-17T21:17:31.756Z,19.00
2023-09-17T21:20:34.877Z,18.98
2023-09-17T21:23:39.461Z,18.94
2023-09-17T21:26:42.001Z,18.93
2023-09-17T21:29:45.151Z,18.91
2023-09-17T21:32:48.129Z,18.91
2023-09-17T21:35:51.245Z,18.93
2023-09-17T21:38:54.493Z,18.90
2023-09-17T21:41:58.477Z,18.91
2023-09-17T21:45:01.595Z,18.89
2023-09-17T21:48:05.058Z,18.88
2023-09-17T21:51:08.970Z,18.87
2023-09-17T21:54:12.155Z,18.84
2023-09-17T21:57:22.444Z,18.83
2023-09-17T22:00:25.379Z,18.81
2023-09-17T22:03:28.713Z,18.78
2023-09-17T22:06:31.782Z,18.72
2023-09-17T22:09:34.925Z,18.66
2023-09-17T22:12:37.925Z,18.63
2023-09-17T22:15:41.032Z,18.57
2023-09-17T22:18:43.723Z,18.53
2023-09-17T22:21:46.929Z,18.51
2023-09-17T22:24:49.571Z,18.51
2023-09-17T22:27:54.631Z,18.51
2023-09-17T22:30:59.367Z,18.43
2023-09-17T22:34:02.605Z,18.36
2023-09-17T22:37:05.450Z,18.30
2023-09-17T22:40:09.160Z,18.28
2023-09-17T22:43:12.182Z,18.24
2023-09-17T22:46:16.526Z,18.24
2023-09-17T22:49:19.609Z,18.19
2023-09-17T22:52:22.828Z,18.16
2023-09-17T22:55:25.568Z,18.13
2023-09-17T22:58:31.967Z,18.09
2023-09-17T23:01:35.738Z,18.07
2023-09-17T23:04:39.042Z,18.01
2023-09-17T23:07:41.658Z,17.96
2023-09-17T23:10:44.755Z,17.95
2023-09-17T23:13:48.238Z,17.93
2023-09-17T23:16:51.166Z,17.90
2023-09-17T23:19:54.757Z,17.89
2023-09-17T23:22:58.030Z,17.85
2023-09-17T23:26:02.598Z,17.81
2023-09-17T23:29:07.770Z,17.78
2023-09-17T23:32:15.253Z,17.76
2023-09-17T23:35:18.630Z,17.73
2023-09-17T23:38:21.361Z,17.73
2023-09-17T23:41:24.970Z,17.69
2023-09-17T23:44:27.975Z,17.68
2023-09-17T23:47:31.825Z,17.69
2023-09-17T23:50:35.425Z,17.68
2023-09-17T23:53:38.888Z,17.67
2023-09-17T23:56:42.206Z,17.65
2023-09-17T23:59:47.251Z,17.64
